Time;durP1;ratioP1;P1;durP2;ratioP2;P2;SDS_P1;SDS_P2;PMS_P1;PMS_P2;Temp;Humidity;BMP_temperature;BMP_pressure;BME280_temperature;BME280_humidity;BME280_pressure;Samples;Min_cycle;Max_cycle;Signal;HPM_P1;HPM_P2
2022/10/27 00:00:16;;;;;;;1.50;0.67;;;26.40;42.70;;;;;;5053331;28;20534;-72
2022/10/27 00:02:45;;;;;;;0.90;0.50;;;26.40;42.90;;;;;;5053437;28;20657;-72
2022/10/27 00:05:12;;;;;;;2.63;0.50;;;26.80;43.00;;;;;;5051930;28;20194;-71
2022/10/27 00:07:40;;;;;;;0.90;0.40;;;26.90;42.00;;;;;;5052711;28;20214;-70
2022/10/27 00:10:08;;;;;;;0.93;0.40;;;27.20;40.30;;;;;;5053388;28;20179;-70
2022/10/27 00:12:36;;;;;;;1.13;0.50;;;27.30;40.20;;;;;;5053299;28;20250;-71
2022/10/27 00:15:03;;;;;;;3.23;0.93;;;27.30;39.00;;;;;;5053149;28;20176;-70
2022/10/27 00:17:30;;;;;;;2.67;0.80;;;27.40;39.80;;;;;;5051665;28;20176;-70
2022/10/27 00:19:58;;;;;;;1.23;0.50;;;27.50;39.00;;;;;;5052265;28;20251;-70
2022/10/27 00:22:25;;;;;;;0.40;0.40;;;27.60;38.50;;;;;;5042211;28;20187;-69
2022/10/27 00:24:53;;;;;;;1.57;0.40;;;27.60;38.50;;;;;;5048540;28;20242;-72
2022/10/27 00:27:20;;;;;;;1.57;0.50;;;27.70;38.40;;;;;;5047299;28;20538;-70
2022/10/27 00:29:47;;;;;;;3.00;0.60;;;27.70;38.90;;;;;;5059168;28;20539;-71
2022/10/27 00:32:15;;;;;;;2.17;0.47;;;27.70;38.30;;;;;;5051315;28;20222;-70
2022/10/27 00:34:42;;;;;;;0.63;0.50;;;27.80;38.40;;;;;;5059464;28;20175;-69
2022/10/27 00:37:09;;;;;;;1.70;0.60;;;27.80;38.40;;;;;;5061512;28;20285;-71
2022/10/27 00:39:37;;;;;;;0.40;0.40;;;27.50;38.30;;;;;;5054243;28;20215;-70
2022/10/27 00:42:04;;;;;;;0.50;0.47;;;27.90;38.30;;;;;;5060039;28;20183;-71
2022/10/27 00:44:38;;;;;;;2.43;0.50;;;28.30;37.60;;;;;;5059529;28;20234;-71
2022/10/27 00:47:14;;;;;;;1.60;0.53;;;27.80;37.50;;;;;;5050182;28;20610;-69
2022/10/27 00:50:16;;;;;;;0.87;0.50;;;27.80;37.00;;;;;;5051867;28;20179;-69
2022/10/27 00:52:50;;;;;;;0.73;0.60;;;27.80;36.90;;;;;;5041081;28;20237;-71
2022/10/27 00:55:32;;;;;;;1.60;0.60;;;28.00;35.60;;;;;;5062388;28;20190;-70
2022/10/27 00:58:05;;;;;;;3.80;0.63;;;28.00;34.70;;;;;;5057904;28;20544;-70
2022/10/27 01:00:35;;;;;;;0.67;0.53;;;28.20;34.70;;;;;;5054591;28;20227;-70
2022/10/27 01:03:03;;;;;;;3.40;0.60;;;28.00;34.50;;;;;;5057944;28;20638;-71
2022/10/27 01:05:31;;;;;;;0.50;0.50;;;27.90;34.90;;;;;;5060176;28;20187;-70
2022/10/27 01:08:01;;;;;;;0.50;0.50;;;27.80;35.30;;;;;;5053738;28;20570;-72
2022/10/27 01:10:29;;;;;;;0.43;0.43;;;27.80;35.10;;;;;;5058695;28;20267;-70
2022/10/27 01:12:57;;;;;;;0.80;0.43;;;27.90;34.90;;;;;;5059147;28;20215;-70
2022/10/27 01:15:46;;;;;;;6.90;0.63;;;28.00;34.70;;;;;;5054876;28;20187;-72
2022/10/27 01:18:43;;;;;;;0.70;0.50;;;27.80;35.10;;;;;;5058775;28;20637;-72
2022/10/27 01:21:28;;;;;;;1.40;0.60;;;27.40;36.30;;;;;;5051221;28;20222;-69
2022/10/27 01:24:43;;;;;;;0.67;0.60;;;27.10;37.10;;;;;;5053252;28;20178;-72
2022/10/27 01:27:16;;;;;;;1.00;0.50;;;27.00;37.50;;;;;;4957734;28;20206;-70
2022/10/27 01:30:07;;;;;;;1.07;0.77;;;26.90;38.00;;;;;;4961278;28;20184;-69
2022/10/27 01:33:08;;;;;;;1.40;0.77;;;27.10;37.50;;;;;;5025302;28;20297;-69
2022/10/27 01:35:44;;;;;;;2.67;0.63;;;26.80;37.90;;;;;;5056273;28;20183;-69
2022/10/27 01:38:27;;;;;;;3.70;0.93;;;26.70;38.40;;;;;;5058263;28;20202;-70
2022/10/27 01:41:05;;;;;;;3.37;0.77;;;25.40;46.60;;;;;;5063995;28;20182;-68
2022/10/27 01:43:33;;;;;;;5.50;0.87;;;23.10;58.80;;;;;;5060993;28;20273;-71
2022/10/27 01:46:04;;;;;;;2.27;0.70;;;21.30;64.60;;;;;;5042374;28;20179;-68
2022/10/27 01:48:36;;;;;;;1.70;0.83;;;20.70;65.90;;;;;;5068868;28;20219;-70
2022/10/27 01:51:05;;;;;;;2.73;0.90;;;20.00;73.30;;;;;;5052662;28;20175;-70
2022/10/27 01:53:39;;;;;;;10.07;1.20;;;19.50;75.50;;;;;;5060688;28;20263;-69
2022/10/27 01:56:25;;;;;;;4.30;1.20;;;19.30;77.90;;;;;;5062969;28;20238;-70
2022/10/27 01:59:03;;;;;;;1.90;1.00;;;19.20;79.80;;;;;;5059381;28;20190;-70
2022/10/27 02:01:35;;;;;;;1.93;1.10;;;19.10;80.50;;;;;;5056013;28;20704;-70
2022/10/27 02:04:34;;;;;;;1.67;1.37;;;19.30;81.60;;;;;;5056298;28;20176;-70
2022/10/27 02:07:21;;;;;;;3.57;1.10;;;19.60;81.50;;;;;;5051958;28;20561;-70
2022/10/27 02:09:56;;;;;;;2.63;0.90;;;19.90;81.30;;;;;;5055484;28;20172;-72
2022/10/27 02:12:32;;;;;;;5.43;0.93;;;20.20;77.60;;;;;;5055761;28;20700;-72
2022/10/27 02:15:05;;;;;;;3.37;1.23;;;20.70;79.30;;;;;;5055640;28;20184;-72
2022/10/27 02:17:40;;;;;;;5.10;1.10;;;21.10;78.30;;;;;;5056467;28;20180;-72
2022/10/27 02:20:17;;;;;;;2.90;1.00;;;22.20;75.40;;;;;;5056478;28;20190;-72
2022/10/27 02:22:46;;;;;;;2.27;1.00;;;22.70;71.50;;;;;;5038445;28;20180;-72
2022/10/27 02:25:14;;;;;;;1.73;1.00;;;23.00;70.40;;;;;;5053624;28;20212;-72
2022/10/27 02:27:47;;;;;;;3.17;0.90;;;23.10;70.10;;;;;;5053041;28;20223;-72
2022/10/27 02:30:15;;;;;;;0.90;0.80;;;23.30;68.00;;;;;;5055334;28;20576;-71
2022/10/27 02:32:43;;;;;;;2.83;0.80;;;23.00;64.90;;;;;;5052370;28;20194;-72
2022/10/27 02:35:13;;;;;;;2.60;0.80;;;23.20;65.10;;;;;;5046864;28;20258;-72
2022/10/27 02:37:44;;;;;;;1.77;1.03;;;23.50;66.10;;;;;;5052058;28;20556;-71
2022/10/27 02:40:12;;;;;;;1.63;0.70;;;23.80;64.30;;;;;;5042142;28;20639;-69
2022/10/27 02:42:39;;;;;;;2.60;0.83;;;23.80;64.90;;;;;;5045974;28;20234;-72
2022/10/27 02:45:07;;;;;;;3.37;0.73;;;23.70;62.50;;;;;;5050270;28;20717;-71
2022/10/27 02:47:34;;;;;;;1.67;0.67;;;24.00;62.10;;;;;;5049770;28;20567;-70
2022/10/27 02:50:02;;;;;;;2.57;1.30;;;24.50;59.30;;;;;;5049640;28;20184;-71
2022/10/27 02:52:29;;;;;;;2.60;1.30;;;24.80;59.10;;;;;;5050349;28;20509;-71
2022/10/27 02:54:57;;;;;;;3.40;1.20;;;25.00;59.70;;;;;;5048010;28;20544;-69
2022/10/27 02:57:24;;;;;;;3.23;1.27;;;25.20;56.80;;;;;;5048640;28;20234;-69
2022/10/27 02:59:51;;;;;;;6.23;1.67;;;25.20;57.10;;;;;;5048663;28;20295;-70
2022/10/27 03:02:19;;;;;;;1.50;1.07;;;25.20;56.70;;;;;;5046340;28;20714;-71
2022/10/27 03:04:46;;;;;;;5.03;1.33;;;25.10;55.60;;;;;;5043387;28;20184;-70
2022/10/27 03:07:14;;;;;;;2.67;1.07;;;25.20;55.90;;;;;;5051554;28;20207;-72
2022/10/27 03:09:41;;;;;;;3.23;1.10;;;25.20;56.20;;;;;;5046491;28;20587;-73
2022/10/27 03:12:08;;;;;;;2.67;0.77;;;25.00;53.80;;;;;;5051980;28;20190;-71
2022/10/27 03:14:36;;;;;;;2.73;0.93;;;24.60;51.70;;;;;;5051181;28;20245;-70
2022/10/27 03:17:03;;;;;;;11.53;1.60;;;24.40;52.90;;;;;;5047155;28;20233;-71
2022/10/27 03:19:30;;;;;;;2.37;1.10;;;24.30;53.90;;;;;;5054377;28;20183;-70
2022/10/27 03:21:58;;;;;;;2.53;1.23;;;24.10;54.20;;;;;;5050050;28;20249;-70
2022/10/27 03:24:25;;;;;;;3.30;0.90;;;24.10;54.40;;;;;;5045985;28;20185;-71
2022/10/27 03:26:52;;;;;;;2.47;0.80;;;24.00;53.30;;;;;;5049022;28;20286;-71
2022/10/27 03:29:20;;;;;;;2.63;0.70;;;23.90;53.60;;;;;;5054041;28;20188;-69
2022/10/27 03:31:47;;;;;;;2.63;0.70;;;23.90;55.40;;;;;;5052235;28;20504;-70
2022/10/27 03:34:14;;;;;;;1.00;0.60;;;23.70;56.40;;;;;;5048050;28;20190;-69
2022/10/27 03:36:42;;;;;;;1.83;0.80;;;23.40;57.30;;;;;;5049595;28;20183;-70
2022/10/27 03:39:09;;;;;;;1.00;0.80;;;23.30;59.40;;;;;;5052247;28;20554;-69
2022/10/27 03:41:36;;;;;;;2.37;0.73;;;23.20;60.30;;;;;;5056821;28;20389;-69
2022/10/27 03:44:04;;;;;;;1.50;0.80;;;23.10;59.10;;;;;;5047910;28;20262;-68
2022/10/27 03:46:32;;;;;;;2.13;0.73;;;23.00;59.00;;;;;;5053121;28;20212;-71
2022/10/27 03:48:59;;;;;;;5.63;1.00;;;23.10;59.10;;;;;;5053989;28;20646;-72
2022/10/27 03:51:27;;;;;;;7.83;0.70;;;23.30;58.40;;;;;;5049816;28;20661;-71
2022/10/27 03:53:57;;;;;;;7.23;0.80;;;23.50;57.50;;;;;;5050325;28;20187;-70
2022/10/27 03:56:24;;;;;;;1.60;0.70;;;23.70;57.00;;;;;;5047315;28;20211;-71
2022/10/27 03:58:51;;;;;;;2.17;0.63;;;23.80;56.20;;;;;;5058168;28;20183;-71
2022/10/27 04:01:19;;;;;;;1.47;0.60;;;24.40;55.40;;;;;;5051768;28;20518;-70
2022/10/27 04:03:48;;;;;;;7.93;1.00;;;24.70;53.50;;;;;;5051288;28;20176;-72
2022/10/27 04:06:15;;;;;;;0.40;0.40;;;24.70;53.80;;;;;;5056829;28;20199;-71
2022/10/27 04:08:43;;;;;;;0.57;0.40;;;24.50;52.60;;;;;;5042117;28;20222;-69
2022/10/27 04:11:10;;;;;;;3.60;0.80;;;24.50;53.30;;;;;;5052341;28;20183;-72
2022/10/27 04:13:39;;;;;;;2.13;0.63;;;24.50;53.10;;;;;;5050833;28;20218;-70
2022/10/27 04:16:07;;;;;;;2.10;0.53;;;24.50;53.10;;;;;;5047169;28;20183;-72
2022/10/27 04:18:35;;;;;;;1.70;0.63;;;24.60;53.20;;;;;;5054863;28;20199;-71
2022/10/27 04:21:04;;;;;;;1.30;0.60;;;24.50;53.10;;;;;;5045964;28;20186;-70
2022/10/27 04:23:32;;;;;;;3.27;0.80;;;24.50;53.60;;;;;;5047156;28;20667;-71
2022/10/27 04:25:59;;;;;;;0.87;0.70;;;24.50;53.80;;;;;;5053783;28;20176;-72
2022/10/27 04:28:27;;;;;;;1.00;0.50;;;24.40;53.70;;;;;;5049963;28;20677;-71
2022/10/27 04:30:54;;;;;;;3.10;0.70;;;24.40;54.00;;;;;;5053099;28;20661;-71
2022/10/27 04:33:22;;;;;;;2.43;2.00;;;24.30;53.90;;;;;;5048861;28;20207;-71
2022/10/27 04:35:49;;;;;;;1.53;0.90;;;24.30;54.70;;;;;;5045860;28;20176;-70
2022/10/27 04:38:16;;;;;;;5.37;1.20;;;24.30;54.20;;;;;;5045132;28;20205;-71
2022/10/27 04:40:44;;;;;;;3.60;1.10;;;24.40;54.50;;;;;;5051035;28;20194;-70
2022/10/27 04:43:11;;;;;;;4.23;1.23;;;24.50;54.30;;;;;;5044875;28;20238;-70
2022/10/27 04:45:40;;;;;;;5.57;0.80;;;24.60;53.90;;;;;;5050077;28;20187;-71
2022/10/27 04:48:07;;;;;;;2.30;0.70;;;24.50;53.70;;;;;;5049632;28;20223;-71
2022/10/27 04:50:38;;;;;;;0.70;0.70;;;24.60;53.20;;;;;;5047249;28;20210;-71
2022/10/27 04:53:05;;;;;;;0.87;0.60;;;24.50;53.40;;;;;;5040339;28;20188;-72
2022/10/27 04:55:33;;;;;;;1.20;0.50;;;24.40;53.80;;;;;;5047351;28;20218;-71
2022/10/27 04:58:01;;;;;;;0.37;0.37;;;24.30;53.90;;;;;;5047070;28;20187;-70
2022/10/27 05:00:28;;;;;;;1.17;0.60;;;24.30;54.00;;;;;;5049264;28;20207;-71
2022/10/27 05:02:58;;;;;;;2.60;0.70;;;24.30;54.50;;;;;;5035529;28;20254;-71
2022/10/27 05:05:28;;;;;;;4.43;0.90;;;24.30;54.60;;;;;;5040083;28;20180;-70
2022/10/27 05:08:00;;;;;;;2.37;0.80;;;24.30;54.40;;;;;;5048686;28;20208;-70
2022/10/27 05:10:29;;;;;;;0.70;0.60;;;24.40;53.80;;;;;;5048489;28;20199;-71
2022/10/27 05:12:57;;;;;;;2.20;0.57;;;24.40;53.60;;;;;;5042441;28;20182;-70
2022/10/27 05:15:24;;;;;;;2.37;0.60;;;24.60;53.60;;;;;;5059463;28;20297;-72
2022/10/27 05:17:52;;;;;;;1.53;0.50;;;24.60;53.10;;;;;;5059145;28;20179;-70
2022/10/27 05:20:21;;;;;;;1.20;0.60;;;24.60;53.10;;;;;;5062534;28;20179;-71
2022/10/27 05:22:48;;;;;;;1.10;0.50;;;24.80;53.20;;;;;;5064991;28;20187;-70
2022/10/27 05:25:17;;;;;;;8.43;0.67;;;25.00;52.40;;;;;;5054370;28;20191;-71
2022/10/27 05:27:44;;;;;;;1.17;0.60;;;26.50;49.70;;;;;;5053635;28;20247;-70
2022/10/27 05:30:13;;;;;;;2.20;0.67;;;27.50;46.10;;;;;;5076421;28;20306;-71
2022/10/27 05:32:41;;;;;;;3.87;0.53;;;28.20;45.00;;;;;;5062846;28;20175;-71
2022/10/27 05:35:09;;;;;;;2.33;0.70;;;28.80;44.00;;;;;;5058460;28;20184;-71
2022/10/27 05:37:36;;;;;;;0.77;0.60;;;28.70;42.10;;;;;;5055809;28;20198;-72
2022/10/27 05:40:05;;;;;;;1.00;0.60;;;28.30;42.70;;;;;;5061027;28;20716;-72
2022/10/27 05:42:33;;;;;;;4.87;0.63;;;29.00;41.50;;;;;;5053651;28;20216;-74
2022/10/27 05:45:01;;;;;;;2.03;0.90;;;29.80;40.30;;;;;;5064748;28;20641;-72
2022/10/27 05:47:28;;;;;;;4.43;0.80;;;30.00;38.70;;;;;;5051279;28;20219;-74
2022/10/27 05:49:55;;;;;;;1.13;0.65;;;30.00;38.10;;;;;;5061594;28;20206;-72
2022/10/27 05:52:23;;;;;;;1.27;0.70;;;29.80;38.80;;;;;;5049479;28;20194;-71
2022/10/27 05:54:50;;;;;;;4.57;0.80;;;30.00;38.20;;;;;;5051332;28;20191;-72
2022/10/27 05:57:17;;;;;;;0.63;0.50;;;29.80;39.10;;;;;;5050215;28;20711;-72
2022/10/27 05:59:45;;;;;;;1.45;0.80;;;29.80;34.90;;;;;;5051896;28;20183;-72
2022/10/27 06:02:12;;;;;;;1.42;0.60;;;29.30;33.60;;;;;;5052171;28;20183;-72
2022/10/27 06:04:40;;;;;;;4.57;1.02;;;30.00;31.90;;;;;;5051787;28;20531;-73
2022/10/27 06:07:07;;;;;;;0.93;0.60;;;30.10;31.30;;;;;;5051784;28;20219;-73
2022/10/27 06:09:35;;;;;;;1.27;0.77;;;29.90;32.40;;;;;;5051985;28;20203;-73
2022/10/27 06:12:02;;;;;;;1.10;0.63;;;29.50;31.70;;;;;;5051848;28;20184;-75
2022/10/27 06:14:30;;;;;;;1.85;0.40;;;30.00;30.60;;;;;;5051496;28;20656;-73
2022/10/27 06:16:58;;;;;;;1.03;0.50;;;29.50;30.40;;;;;;5050428;28;20184;-73
2022/10/27 06:19:26;;;;;;;0.40;0.40;;;29.70;30.30;;;;;;5049259;28;20187;-76
2022/10/27 06:21:53;;;;;;;1.63;0.63;;;29.90;30.10;;;;;;5051019;28;20656;-73
2022/10/27 06:24:20;;;;;;;0.50;0.45;;;29.60;30.00;;;;;;5051885;28;20183;-71
2022/10/27 06:26:48;;;;;;;1.73;0.53;;;30.00;29.40;;;;;;5054513;28;20179;-71
2022/10/27 06:29:15;;;;;;;0.50;0.50;;;30.00;29.60;;;;;;5054499;28;20646;-70
2022/10/27 06:31:43;;;;;;;0.60;0.40;;;29.60;29.10;;;;;;5055493;28;20172;-70
2022/10/27 06:34:10;;;;;;;0.93;0.50;;;29.60;29.20;;;;;;5055691;28;20176;-71
2022/10/27 06:36:37;;;;;;;1.93;0.57;;;29.20;30.40;;;;;;5054408;28;20203;-71
2022/10/27 06:39:04;;;;;;;1.23;0.80;;;29.50;29.70;;;;;;5054036;28;20187;-69
2022/10/27 06:41:32;;;;;;;3.53;0.70;;;29.00;30.60;;;;;;5048479;28;20184;-68
2022/10/27 06:43:59;;;;;;;2.37;0.50;;;29.00;30.90;;;;;;5049752;28;20311;-70
2022/10/27 06:46:26;;;;;;;0.97;0.60;;;29.30;30.10;;;;;;5054493;28;20688;-71
2022/10/27 06:48:54;;;;;;;2.20;0.67;;;29.80;30.00;;;;;;5055258;28;20216;-70
2022/10/27 06:51:21;;;;;;;4.35;0.80;;;29.60;30.40;;;;;;5041898;28;20204;-68
2022/10/27 06:53:48;;;;;;;0.40;0.40;;;29.70;30.30;;;;;;5054990;28;20186;-68
2022/10/27 06:56:17;;;;;;;1.33;0.47;;;29.30;29.80;;;;;;5054666;28;20184;-70
2022/10/27 06:58:48;;;;;;;1.10;0.77;;;28.80;30.90;;;;;;5051789;28;20281;-69
2022/10/27 07:01:15;;;;;;;2.00;0.50;;;28.70;31.00;;;;;;5051553;28;20220;-70
2022/10/27 07:03:42;;;;;;;0.50;0.50;;;28.20;31.80;;;;;;5052821;28;20287;-72
2022/10/27 07:06:10;;;;;;;1.03;0.67;;;27.40;33.00;;;;;;5054980;28;20345;-69
2022/10/27 07:08:37;;;;;;;1.73;0.70;;;27.00;34.20;;;;;;5054719;28;20211;-68
2022/10/27 07:11:04;;;;;;;2.00;0.50;;;27.20;34.50;;;;;;5054443;28;20751;-69
2022/10/27 07:13:32;;;;;;;1.63;0.60;;;26.60;37.80;;;;;;5036701;28;20544;-68
2022/10/27 07:15:59;;;;;;;1.17;0.60;;;27.10;38.20;;;;;;5054669;28;20176;-68
2022/10/27 07:18:26;;;;;;;0.63;0.60;;;27.80;36.90;;;;;;5054791;28;20192;-69
2022/10/27 07:20:54;;;;;;;1.17;0.67;;;27.90;36.70;;;;;;5054313;28;20267;-68
2022/10/27 07:23:21;;;;;;;1.10;0.80;;;27.40;37.90;;;;;;5054354;28;20194;-71
2022/10/27 07:25:49;;;;;;;1.70;0.87;;;26.70;39.90;;;;;;5054390;28;20184;-68
2022/10/27 07:28:17;;;;;;;0.87;0.60;;;26.10;41.20;;;;;;5050240;28;20208;-67
2022/10/27 07:30:47;;;;;;;1.00;0.60;;;26.00;41.80;;;;;;5052553;28;20180;-68
2022/10/27 07:33:14;;;;;;;1.60;0.90;;;25.90;42.40;;;;;;5053860;28;20592;-70
2022/10/27 07:35:42;;;;;;;2.20;0.73;;;25.70;42.80;;;;;;5052774;28;20200;-73
2022/10/27 07:38:09;;;;;;;1.70;0.90;;;25.40;43.70;;;;;;5054444;28;20182;-74
2022/10/27 07:40:36;;;;;;;2.00;0.80;;;25.20;43.90;;;;;;5054104;28;20168;-73
2022/10/27 07:43:04;;;;;;;1.77;0.80;;;25.00;43.60;;;;;;5054001;28;20307;-77
2022/10/27 07:45:32;;;;;;;1.57;0.87;;;24.80;43.40;;;;;;5036556;28;20229;-70
2022/10/27 07:47:59;;;;;;;1.90;0.60;;;24.80;43.70;;;;;;5054101;28;20662;-70
2022/10/27 07:50:28;;;;;;;3.70;0.90;;;24.70;43.90;;;;;;5054340;28;20165;-73
2022/10/27 07:52:56;;;;;;;4.17;1.00;;;24.60;44.00;;;;;;5050764;28;20673;-74
2022/10/27 07:55:26;;;;;;;1.60;0.73;;;24.40;44.30;;;;;;5053075;28;20192;-76
2022/10/27 07:58:01;;;;;;;0.70;0.70;;;24.40;44.50;;;;;;5053116;28;20178;-69
2022/10/27 08:00:30;;;;;;;1.70;0.87;;;24.30;44.60;;;;;;5049992;28;20209;-70
2022/10/27 08:03:01;;;;;;;3.13;0.80;;;24.40;44.50;;;;;;5045186;28;20903;-77
2022/10/27 08:05:34;;;;;;;1.73;0.80;;;24.40;44.80;;;;;;5053026;28;20184;-71
2022/10/27 08:08:03;;;;;;;0.60;0.60;;;24.40;45.00;;;;;;5069133;28;20693;-73
2022/10/27 08:10:33;;;;;;;2.60;0.80;;;24.40;45.50;;;;;;5053253;28;20698;-73
2022/10/27 08:13:00;;;;;;;1.00;0.90;;;24.30;46.30;;;;;;5052164;28;20215;-76
2022/10/27 08:15:28;;;;;;;2.87;1.33;;;24.20;46.40;;;;;;5053269;28;20203;-71
2022/10/27 08:18:00;;;;;;;2.43;1.10;;;24.00;46.50;;;;;;5052134;28;20237;-75
2022/10/27 08:20:30;;;;;;;1.70;1.00;;;23.90;46.70;;;;;;5051873;28;20175;-71
2022/10/27 08:22:59;;;;;;;1.27;0.90;;;23.80;45.20;;;;;;5053949;28;20177;-71
2022/10/27 08:25:27;;;;;;;3.43;1.10;;;23.70;45.30;;;;;;5054145;28;20168;-73
2022/10/27 08:27:55;;;;;;;3.27;1.00;;;23.70;43.80;;;;;;5053258;28;20200;-70
2022/10/27 08:30:25;;;;;;;2.17;0.70;;;23.70;43.20;;;;;;5053345;28;20225;-71
2022/10/27 08:32:56;;;;;;;1.37;0.90;;;23.60;42.40;;;;;;5052261;28;20173;-72
2022/10/27 08:35:25;;;;;;;1.63;0.80;;;23.60;42.10;;;;;;5052774;28;20175;-76
2022/10/27 08:38:04;;;;;;;0.77;0.77;;;23.50;41.50;;;;;;5053577;28;20580;-76
2022/10/27 08:40:38;;;;;;;1.07;0.90;;;23.40;41.70;;;;;;5053087;28;20186;-75
2022/10/27 08:43:32;;;;;;;3.67;0.90;;;23.30;41.90;;;;;;5047746;28;20224;-70
2022/10/27 08:46:06;;;;;;;2.90;0.97;;;23.20;42.10;;;;;;5044294;28;20187;-72
2022/10/27 08:48:34;;;;;;;2.83;0.93;;;23.20;41.50;;;;;;5050645;28;20700;-71
2022/10/27 08:51:01;;;;;;;1.13;0.80;;;23.10;42.20;;;;;;5048067;28;20234;-71
2022/10/27 08:53:36;;;;;;;1.43;0.90;;;22.90;41.80;;;;;;5042333;28;20668;-70
2022/10/27 08:56:14;;;;;;;0.97;0.60;;;22.90;41.00;;;;;;5050952;28;20176;-69
2022/10/27 08:58:44;;;;;;;1.00;0.70;;;22.90;41.10;;;;;;5038421;28;20179;-73
2022/10/27 09:01:19;;;;;;;1.63;0.80;;;22.80;40.30;;;;;;5050894;28;20960;-73
2022/10/27 09:04:11;;;;;;;2.87;0.70;;;22.80;40.20;;;;;;5050448;28;20179;-74
2022/10/27 09:07:04;;;;;;;1.13;0.60;;;22.80;40.50;;;;;;5051457;28;20647;-74
2022/10/27 09:09:47;;;;;;;2.10;0.80;;;22.70;40.40;;;;;;5019643;28;20200;-75
2022/10/27 09:12:44;;;;;;;1.43;0.60;;;22.50;40.60;;;;;;5051932;28;20180;-70
2022/10/27 09:15:33;;;;;;;0.87;0.60;;;22.50;40.30;;;;;;5060010;28;20183;-70
2022/10/27 09:18:45;;;;;;;2.40;0.70;;;22.40;41.30;;;;;;5050691;28;20180;-70
2022/10/27 09:21:21;;;;;;;1.33;0.83;;;22.30;40.80;;;;;;5027956;28;20585;-73
2022/10/27 09:24:02;;;;;;;0.87;0.50;;;22.30;41.00;;;;;;5052207;28;20183;-75
2022/10/27 09:26:32;;;;;;;2.33;0.67;;;22.20;41.30;;;;;;5051809;28;20178;-70
2022/10/27 09:29:14;;;;;;;1.10;0.87;;;22.10;41.90;;;;;;5051983;28;20219;-70
2022/10/27 09:31:57;;;;;;;2.57;0.70;;;22.00;41.80;;;;;;5050913;28;20183;-72
2022/10/27 09:34:30;;;;;;;3.27;1.10;;;22.00;42.50;;;;;;5051608;28;21182;-73
2022/10/27 09:36:57;;;;;;;5.70;1.20;;;21.90;42.60;;;;;;5038493;28;20200;-74
2022/10/27 09:39:25;;;;;;;1.93;1.00;;;21.80;43.20;;;;;;5051128;28;20565;-70
2022/10/27 09:41:53;;;;;;;2.33;1.10;;;21.70;43.60;;;;;;5051889;28;20542;-74
2022/10/27 09:44:22;;;;;;;2.93;1.10;;;21.60;43.00;;;;;;5048758;28;20705;-68
2022/10/27 09:46:54;;;;;;;2.63;1.40;;;21.60;43.10;;;;;;5048140;28;20646;-73
2022/10/27 09:49:29;;;;;;;2.47;1.60;;;21.60;43.60;;;;;;5051249;28;20721;-71
2022/10/27 09:52:09;;;;;;;3.33;2.20;;;21.40;44.40;;;;;;5051882;28;20185;-73
2022/10/27 09:54:41;;;;;;;3.13;2.00;;;21.30;44.70;;;;;;5048065;28;20183;-69
2022/10/27 09:57:17;;;;;;;2.80;2.27;;;21.30;45.70;;;;;;5051935;28;20187;-74
2022/10/27 10:00:01;;;;;;;3.60;2.17;;;21.20;46.00;;;;;;5051977;28;20176;-68
2022/10/27 10:02:30;;;;;;;3.97;2.63;;;21.10;47.20;;;;;;5043195;28;20186;-68
2022/10/27 10:04:59;;;;;;;3.43;2.37;;;21.00;47.70;;;;;;5052852;28;20399;-68
2022/10/27 10:07:32;;;;;;;3.90;2.40;;;20.90;48.30;;;;;;5042316;28;20219;-68
2022/10/27 10:10:05;;;;;;;3.40;2.30;;;20.80;49.00;;;;;;5053966;28;20294;-70
2022/10/27 10:12:32;;;;;;;3.07;2.00;;;20.80;49.10;;;;;;5055133;28;20176;-74
2022/10/27 10:15:12;;;;;;;2.80;1.80;;;20.70;47.40;;;;;;5067391;28;20260;-68
2022/10/27 10:17:58;;;;;;;4.50;1.80;;;20.80;47.20;;;;;;5055420;28;20184;-68
2022/10/27 10:20:34;;;;;;;2.70;1.70;;;20.80;47.60;;;;;;5055359;28;20180;-68
2022/10/27 10:23:05;;;;;;;4.90;1.90;;;20.80;48.00;;;;;;5054934;28;20206;-68
2022/10/27 10:25:41;;;;;;;2.43;1.27;;;20.80;48.00;;;;;;5054841;28;20183;-69
2022/10/27 10:28:16;;;;;;;1.70;0.97;;;20.60;47.90;;;;;;5055293;28;20223;-67
2022/10/27 10:30:54;;;;;;;4.73;1.30;;;20.70;47.80;;;;;;5054845;28;20228;-67
2022/10/27 10:33:24;;;;;;;1.60;1.10;;;20.70;48.60;;;;;;5052837;28;20189;-68
2022/10/27 10:35:52;;;;;;;1.80;1.37;;;20.80;48.50;;;;;;5054938;28;20176;-67
2022/10/27 10:38:39;;;;;;;2.17;1.30;;;20.80;49.10;;;;;;5054640;28;20180;-68
2022/10/27 10:41:12;;;;;;;1.97;1.20;;;20.80;49.20;;;;;;5047090;28;20195;-68
2022/10/27 10:43:40;;;;;;;2.23;0.97;;;20.70;49.70;;;;;;5048634;28;20587;-67
2022/10/27 10:46:25;;;;;;;1.90;1.10;;;20.70;49.90;;;;;;5041515;28;20215;-71
2022/10/27 10:48:58;;;;;;;2.47;1.07;;;20.70;50.10;;;;;;5048488;28;20230;-69
2022/10/27 10:51:36;;;;;;;1.37;0.87;;;20.70;50.30;;;;;;5055197;28;20180;-71
2022/10/27 10:54:13;;;;;;;1.47;1.00;;;20.70;50.50;;;;;;5056247;28;20188;-71
2022/10/27 10:56:40;;;;;;;1.17;0.80;;;20.70;51.00;;;;;;5054252;28;20511;-69
2022/10/27 10:59:14;;;;;;;1.90;1.00;;;20.60;50.70;;;;;;5053595;28;20210;-69
2022/10/27 11:01:55;;;;;;;1.40;0.97;;;20.60;50.60;;;;;;5053873;28;20188;-70
2022/10/27 11:04:38;;;;;;;2.73;0.87;;;20.60;51.00;;;;;;5055317;28;20183;-69
2022/10/27 11:07:30;;;;;;;1.27;1.00;;;20.60;51.40;;;;;;5054762;28;20207;-70
2022/10/27 11:10:20;;;;;;;3.53;1.07;;;20.50;52.00;;;;;;5054655;28;20195;-70
2022/10/27 11:12:55;;;;;;;2.33;1.07;;;20.40;52.00;;;;;;5050421;28;20672;-68
2022/10/27 11:15:32;;;;;;;4.30;0.93;;;20.40;52.20;;;;;;5054600;28;20178;-69
2022/10/27 11:18:19;;;;;;;1.87;0.87;;;20.40;51.70;;;;;;5053864;28;20703;-68
2022/10/27 11:20:53;;;;;;;1.97;0.80;;;20.40;52.50;;;;;;5054482;28;20719;-68
2022/10/27 11:23:28;;;;;;;1.57;0.80;;;20.40;52.60;;;;;;5053237;28;20705;-69
2022/10/27 11:26:01;;;;;;;3.77;0.80;;;20.40;52.40;;;;;;5054509;28;20468;-68
2022/10/27 11:28:41;;;;;;;2.50;0.93;;;20.30;52.40;;;;;;5041017;28;20234;-70
2022/10/27 11:31:18;;;;;;;1.87;1.17;;;20.30;52.70;;;;;;5053378;28;20184;-68
2022/10/27 11:34:11;;;;;;;1.53;0.80;;;20.30;53.00;;;;;;5052258;28;20180;-67
2022/10/27 11:37:24;;;;;;;1.93;0.83;;;20.30;53.00;;;;;;5052500;28;20191;-69
2022/10/27 11:40:13;;;;;;;2.03;0.80;;;20.30;53.20;;;;;;5043397;28;20261;-70
2022/10/27 11:43:06;;;;;;;1.30;0.60;;;20.30;53.40;;;;;;5053082;28;20228;-68
2022/10/27 11:45:40;;;;;;;1.17;0.80;;;20.30;52.90;;;;;;5053618;28;20180;-69
2022/10/27 11:48:28;;;;;;;1.03;0.57;;;20.30;52.90;;;;;;5054386;28;20269;-68
2022/10/27 11:51:06;;;;;;;1.87;0.60;;;20.30;52.90;;;;;;5053985;28;20222;-68
2022/10/27 11:53:33;;;;;;;1.73;0.73;;;20.30;53.00;;;;;;5053848;28;20585;-68
2022/10/27 11:56:31;;;;;;;4.37;0.90;;;20.30;53.10;;;;;;5050115;28;20184;-68
2022/10/27 11:59:06;;;;;;;2.53;0.60;;;20.20;53.50;;;;;;5041881;28;20168;-73
2022/10/27 12:01:45;;;;;;;1.17;0.60;;;20.30;53.90;;;;;;5052610;28;20172;-69
2022/10/27 12:04:16;;;;;;;1.67;0.80;;;20.30;53.50;;;;;;5053371;28;20210;-68
2022/10/27 12:07:12;;;;;;;0.60;0.60;;;20.30;53.80;;;;;;5052420;28;20184;-69
2022/10/27 12:09:45;;;;;;;2.00;0.60;;;20.30;53.60;;;;;;5047381;28;20234;-68
2022/10/27 12:12:36;;;;;;;0.60;0.60;;;20.30;53.40;;;;;;5053808;28;20255;-68
2022/10/27 12:15:15;;;;;;;2.60;0.60;;;20.30;53.80;;;;;;5041890;28;20677;-68
2022/10/27 12:17:53;;;;;;;0.80;0.60;;;20.20;53.90;;;;;;5052609;28;20186;-68
2022/10/27 12:20:30;;;;;;;0.87;0.70;;;20.20;54.40;;;;;;5053458;28;20172;-69
2022/10/27 12:23:05;;;;;;;1.27;0.70;;;20.10;54.90;;;;;;5051885;28;20187;-68
2022/10/27 12:25:41;;;;;;;1.10;0.60;;;20.10;55.30;;;;;;5049114;28;20183;-69
2022/10/27 12:28:13;;;;;;;1.17;0.90;;;20.00;55.90;;;;;;5051346;28;20211;-69
2022/10/27 12:30:45;;;;;;;1.47;0.70;;;19.90;56.40;;;;;;5053199;28;20195;-68
2022/10/27 12:33:57;;;;;;;1.03;0.70;;;19.90;56.40;;;;;;5053254;28;20204;-69
2022/10/27 12:36:40;;;;;;;4.97;0.67;;;19.90;55.30;;;;;;4991932;28;20184;-68
2022/10/27 12:39:33;;;;;;;1.30;0.73;;;19.90;55.50;;;;;;4991826;28;20714;-68
2022/10/27 12:42:09;;;;;;;1.03;0.60;;;20.00;55.50;;;;;;5042391;28;20192;-68
2022/10/27 12:44:52;;;;;;;0.83;0.73;;;19.90;55.50;;;;;;5053415;28;20258;-70
2022/10/27 12:48:07;;;;;;;0.93;0.80;;;19.80;56.10;;;;;;5052734;28;20207;-70
2022/10/27 12:50:41;;;;;;;1.83;0.87;;;19.80;56.10;;;;;;5053223;28;20176;-68
2022/10/27 12:53:30;;;;;;;3.50;1.00;;;19.80;56.30;;;;;;5053313;28;20206;-69
2022/10/27 12:56:17;;;;;;;3.33;1.17;;;19.80;56.70;;;;;;5052821;28;20204;-69
2022/10/27 12:58:57;;;;;;;3.63;1.43;;;19.80;56.80;;;;;;5051671;28;20581;-69
2022/10/27 13:01:37;;;;;;;2.73;1.30;;;19.80;56.40;;;;;;5051737;28;20179;-73
2022/10/27 13:04:32;;;;;;;2.37;1.10;;;19.70;57.00;;;;;;5064968;28;20183;-72
2022/10/27 13:07:33;;;;;;;1.83;1.10;;;19.60;56.80;;;;;;5056640;28;20179;-73
2022/10/27 13:10:33;;;;;;;1.37;1.10;;;19.70;56.50;;;;;;5065473;28;20245;-74
2022/10/27 13:13:09;;;;;;;2.97;1.00;;;19.60;56.50;;;;;;5062021;28;20179;-71
2022/10/27 13:15:56;;;;;;;2.50;1.00;;;19.60;55.90;;;;;;5057407;28;20179;-73
2022/10/27 13:18:42;;;;;;;2.17;0.90;;;19.60;55.70;;;;;;5062668;28;20628;-75